sensor_id;sensor_type;location;lat;lon;timestamp;temperature;humidity
2639;DHT22;1329;51.384;7.122;2022-10-16T00:00:42;16.10;99.90
2639;DHT22;1329;51.384;7.122;2022-10-16T00:03:10;16.10;99.90
2639;DHT22;1329;51.384;7.122;2022-10-16T00:05:42;16.10;99.90
2639;DHT22;1329;51.384;7.122;2022-10-16T00:08:11;16.10;99.90
2639;DHT22;1329;51.384;7.122;2022-10-16T00:10:39;16.10;99.90
2639;DHT22;1329;51.384;7.122;2022-10-16T00:13:08;16.00;99.90
2639;DHT22;1329;51.384;7.122;2022-10-16T00:15:36;16.00;99.90
2639;DHT22;1329;51.384;7.122;2022-10-16T00:18:05;16.00;99.90
2639;DHT22;1329;51.384;7.122;2022-10-16T00:20:34;16.10;99.90
2639;DHT22;1329;51.384;7.122;2022-10-16T00:23:02;16.10;99.90
2639;DHT22;1329;51.384;7.122;2022-10-16T00:25:30;16.10;99.90
2639;DHT22;1329;51.384;7.122;2022-10-16T00:27:59;16.10;99.90
2639;DHT22;1329;51.384;7.122;2022-10-16T00:30:28;16.10;99.90
2639;DHT22;1329;51.384;7.122;2022-10-16T00:32:55;16.10;99.90
2639;DHT22;1329;51.384;7.122;2022-10-16T00:35:22;16.10;99.90
2639;DHT22;1329;51.384;7.122;2022-10-16T00:37:50;16.20;99.90
2639;DHT22;1329;51.384;7.122;2022-10-16T00:40:17;16.20;99.90
2639;DHT22;1329;51.384;7.122;2022-10-16T00:42:44;16.10;99.90
2639;DHT22;1329;51.384;7.122;2022-10-16T00:45:11;16.20;99.90
2639;DHT22;1329;51.384;7.122;2022-10-16T00:47:43;16.20;99.90
2639;DHT22;1329;51.384;7.122;2022-10-16T00:50:17;16.20;99.90
2639;DHT22;1329;51.384;7.122;2022-10-16T00:52:48;16.10;99.90
2639;DHT22;1329;51.384;7.122;2022-10-16T00:55:17;16.10;99.90
2639;DHT22;1329;51.384;7.122;2022-10-16T00:57:46;16.20;99.90
2639;DHT22;1329;51.384;7.122;2022-10-16T01:00:17;16.10;99.90
2639;DHT22;1329;51.384;7.122;2022-10-16T01:02:53;16.10;99.90
2639;DHT22;1329;51.384;7.122;2022-10-16T01:05:21;16.10;99.90
2639;DHT22;1329;51.384;7.122;2022-10-16T01:07:56;16.00;99.90
2639;DHT22;1329;51.384;7.122;2022-10-16T01:10:29;16.10;99.90
2639;DHT22;1329;51.384;7.122;2022-10-16T01:13:02;16.00;99.90
2639;DHT22;1329;51.384;7.122;2022-10-16T01:15:34;16.00;99.90
2639;DHT22;1329;51.384;7.122;2022-10-16T01:18:10;16.00;99.90
2639;DHT22;1329;51.384;7.122;2022-10-16T01:20:45;16.00;99.90
2639;DHT22;1329;51.384;7.122;2022-10-16T01:23:21;16.00;99.90
2639;DHT22;1329;51.384;7.122;2022-10-16T01:26:07;16.00;99.90
2639;DHT22;1329;51.384;7.122;2022-10-16T01:28:47;16.00;99.90
2639;DHT22;1329;51.384;7.122;2022-10-16T01:31:19;16.00;99.90
2639;DHT22;1329;51.384;7.122;2022-10-16T01:33:56;16.00;99.90
2639;DHT22;1329;51.384;7.122;2022-10-16T01:36:31;15.90;99.90
2639;DHT22;1329;51.384;7.122;2022-10-16T01:39:03;15.90;99.90
2639;DHT22;1329;51.384;7.122;2022-10-16T01:41:33;15.90;99.90
2639;DHT22;1329;51.384;7.122;2022-10-16T01:44:05;15.90;99.90
2639;DHT22;1329;51.384;7.122;2022-10-16T01:46:37;15.80;99.90
2639;DHT22;1329;51.384;7.122;2022-10-16T01:49:06;15.80;99.90
2639;DHT22;1329;51.384;7.122;2022-10-16T01:51:35;15.80;99.90
2639;DHT22;1329;51.384;7.122;2022-10-16T01:54:05;15.80;99.90
2639;DHT22;1329;51.384;7.122;2022-10-16T01:56:35;15.80;99.90
2639;DHT22;1329;51.384;7.122;2022-10-16T01:59:07;15.80;99.90
2639;DHT22;1329;51.384;7.122;2022-10-16T02:01:39;15.80;99.90
2639;DHT22;1329;51.384;7.122;2022-10-16T02:04:13;15.80;99.90
2639;DHT22;1329;51.384;7.122;2022-10-16T02:06:44;15.80;99.90
2639;DHT22;1329;51.384;7.122;2022-10-16T02:09:12;15.80;99.90
2639;DHT22;1329;51.384;7.122;2022-10-16T02:11:43;15.80;99.90
2639;DHT22;1329;51.384;7.122;2022-10-16T02:14:11;15.80;99.90
2639;DHT22;1329;51.384;7.122;2022-10-16T02:16:40;15.80;99.90
2639;DHT22;1329;51.384;7.122;2022-10-16T02:19:09;15.80;99.90
2639;DHT22;1329;51.384;7.122;2022-10-16T02:21:40;15.80;99.90
2639;DHT22;1329;51.384;7.122;2022-10-16T02:24:18;15.80;99.90
2639;DHT22;1329;51.384;7.122;2022-10-16T02:26:54;15.80;99.90
2639;DHT22;1329;51.384;7.122;2022-10-16T02:29:28;15.80;99.90
2639;DHT22;1329;51.384;7.122;2022-10-16T02:31:58;15.70;99.90
2639;DHT22;1329;51.384;7.122;2022-10-16T02:34:30;15.70;99.90
2639;DHT22;1329;51.384;7.122;2022-10-16T02:37:00;15.70;99.90
2639;DHT22;1329;51.384;7.122;2022-10-16T02:39:28;15.70;99.90
2639;DHT22;1329;51.384;7.122;2022-10-16T02:41:56;15.70;99.90
2639;DHT22;1329;51.384;7.122;2022-10-16T02:44:23;15.70;99.90
2639;DHT22;1329;51.384;7.122;2022-10-16T02:46:52;15.70;99.90
2639;DHT22;1329;51.384;7.122;2022-10-16T02:49:19;15.70;99.90
2639;DHT22;1329;51.384;7.122;2022-10-16T02:51:46;15.70;99.90
2639;DHT22;1329;51.384;7.122;2022-10-16T02:54:13;15.70;99.90
2639;DHT22;1329;51.384;7.122;2022-10-16T02:56:40;15.70;99.90
2639;DHT22;1329;51.384;7.122;2022-10-16T02:59:07;15.70;99.90
2639;DHT22;1329;51.384;7.122;2022-10-16T03:01:34;15.70;99.90
2639;DHT22;1329;51.384;7.122;2022-10-16T03:04:02;15.80;99.90
2639;DHT22;1329;51.384;7.122;2022-10-16T03:06:30;15.80;99.90
2639;DHT22;1329;51.384;7.122;2022-10-16T03:08:57;15.80;99.90
2639;DHT22;1329;51.384;7.122;2022-10-16T03:11:24;15.80;99.90
2639;DHT22;1329;51.384;7.122;2022-10-16T03:13:51;15.90;99.90
2639;DHT22;1329;51.384;7.122;2022-10-16T03:16:18;15.90;99.90
2639;DHT22;1329;51.384;7.122;2022-10-16T03:18:48;15.90;99.90
2639;DHT22;1329;51.384;7.122;2022-10-16T03:21:17;16.00;99.90
2639;DHT22;1329;51.384;7.122;2022-10-16T03:23:44;15.90;99.90
2639;DHT22;1329;51.384;7.122;2022-10-16T03:26:12;16.00;99.90
2639;DHT22;1329;51.384;7.122;2022-10-16T03:28:39;16.00;99.90
2639;DHT22;1329;51.384;7.122;2022-10-16T03:31:06;16.00;99.90
2639;DHT22;1329;51.384;7.122;2022-10-16T03:33:33;16.00;99.90
2639;DHT22;1329;51.384;7.122;2022-10-16T03:36:00;15.90;99.90
2639;DHT22;1329;51.384;7.122;2022-10-16T03:38:29;16.00;99.90
2639;DHT22;1329;51.384;7.122;2022-10-16T03:40:56;16.00;99.90
2639;DHT22;1329;51.384;7.122;2022-10-16T03:43:23;16.00;99.90
2639;DHT22;1329;51.384;7.122;2022-10-16T03:45:50;16.00;99.90
2639;DHT22;1329;51.384;7.122;2022-10-16T03:48:18;16.00;99.90
2639;DHT22;1329;51.384;7.122;2022-10-16T03:50:45;15.90;99.90
2639;DHT22;1329;51.384;7.122;2022-10-16T03:53:13;15.90;99.90
2639;DHT22;1329;51.384;7.122;2022-10-16T03:55:43;15.90;99.90
2639;DHT22;1329;51.384;7.122;2022-10-16T03:58:10;15.90;99.90
2639;DHT22;1329;51.384;7.122;2022-10-16T04:00:40;15.90;99.90
2639;DHT22;1329;51.384;7.122;2022-10-16T04:03:07;15.90;99.90
2639;DHT22;1329;51.384;7.122;2022-10-16T04:05:34;15.80;99.90
2639;DHT22;1329;51.384;7.122;2022-10-16T04:08:02;15.80;99.90
2639;DHT22;1329;51.384;7.122;2022-10-16T04:10:29;15.80;99.90
2639;DHT22;1329;51.384;7.122;2022-10-16T04:12:58;15.80;99.90
2639;DHT22;1329;51.384;7.122;2022-10-16T04:15:25;15.80;99.90
2639;DHT22;1329;51.384;7.122;2022-10-16T04:17:52;15.70;99.90
2639;DHT22;1329;51.384;7.122;2022-10-16T04:20:20;15.70;99.90
2639;DHT22;1329;51.384;7.122;2022-10-16T04:22:47;15.70;99.90
2639;DHT22;1329;51.384;7.122;2022-10-16T04:25:14;15.70;99.90
2639;DHT22;1329;51.384;7.122;2022-10-16T04:27:41;15.60;99.90
2639;DHT22;1329;51.384;7.122;2022-10-16T04:30:10;15.60;99.90
2639;DHT22;1329;51.384;7.122;2022-10-16T04:32:37;15.60;99.90
2639;DHT22;1329;51.384;7.122;2022-10-16T04:35:05;15.60;99.90
2639;DHT22;1329;51.384;7.122;2022-10-16T04:37:33;15.60;99.90
2639;DHT22;1329;51.384;7.122;2022-10-16T04:40:00;15.50;99.90
2639;DHT22;1329;51.384;7.122;2022-10-16T04:42:27;15.50;99.90
2639;DHT22;1329;51.384;7.122;2022-10-16T04:44:54;15.50;99.90
2639;DHT22;1329;51.384;7.122;2022-10-16T04:47:23;15.50;99.90
2639;DHT22;1329;51.384;7.122;2022-10-16T04:49:50;15.50;99.90
2639;DHT22;1329;51.384;7.122;2022-10-16T04:52:17;15.50;99.90
2639;DHT22;1329;51.384;7.122;2022-10-16T04:54:44;15.50;99.90
2639;DHT22;1329;51.384;7.122;2022-10-16T04:57:12;15.40;99.90
2639;DHT22;1329;51.384;7.122;2022-10-16T04:59:39;15.50;99.90
2639;DHT22;1329;51.384;7.122;2022-10-16T05:02:06;15.50;99.90
2639;DHT22;1329;51.384;7.122;2022-10-16T05:04:34;15.50;99.90
2639;DHT22;1329;51.384;7.122;2022-10-16T05:07:01;15.50;99.90
2639;DHT22;1329;51.384;7.122;2022-10-16T05:09:28;15.50;99.90
2639;DHT22;1329;51.384;7.122;2022-10-16T05:11:56;15.50;99.90
2639;DHT22;1329;51.384;7.122;2022-10-16T05:14:23;15.50;99.90
2639;DHT22;1329;51.384;7.122;2022-10-16T05:16:50;15.50;99.90
2639;DHT22;1329;51.384;7.122;2022-10-16T05:19:17;15.50;99.90
2639;DHT22;1329;51.384;7.122;2022-10-16T05:21:46;15.50;99.90
2639;DHT22;1329;51.384;7.122;2022-10-16T05:24:13;15.50;99.90
2639;DHT22;1329;51.384;7.122;2022-10-16T05:26:40;15.50;99.90
2639;DHT22;1329;51.384;7.122;2022-10-16T05:29:07;15.50;99.90
2639;DHT22;1329;51.384;7.122;2022-10-16T05:31:36;15.50;99.90
2639;DHT22;1329;51.384;7.122;2022-10-16T05:34:03;15.50;99.90
2639;DHT22;1329;51.384;7.122;2022-10-16T05:36:30;15.50;99.90
2639;DHT22;1329;51.384;7.122;2022-10-16T05:38:58;15.50;99.90
2639;DHT22;1329;51.384;7.122;2022-10-16T05:41:25;15.50;99.90
2639;DHT22;1329;51.384;7.122;2022-10-16T05:43:53;15.50;99.90
2639;DHT22;1329;51.384;7.122;2022-10-16T05:46:20;15.50;99.90
2639;DHT22;1329;51.384;7.122;2022-10-16T05:48:47;15.50;99.90
2639;DHT22;1329;51.384;7.122;2022-10-16T05:51:14;15.50;99.90
2639;DHT22;1329;51.384;7.122;2022-10-16T05:53:42;15.50;99.90
2639;DHT22;1329;51.384;7.122;2022-10-16T05:56:11;15.50;99.90
2639;DHT22;1329;51.384;7.122;2022-10-16T05:58:38;15.50;99.90
2639;DHT22;1329;51.384;7.122;2022-10-16T06:01:09;15.50;99.90
2639;DHT22;1329;51.384;7.122;2022-10-16T06:03:37;15.50;99.90
2639;DHT22;1329;51.384;7.122;2022-10-16T06:06:08;15.50;99.90
2639;DHT22;1329;51.384;7.122;2022-10-16T06:08:36;15.50;99.90
2639;DHT22;1329;51.384;7.122;2022-10-16T06:11:05;15.50;99.90
2639;DHT22;1329;51.384;7.122;2022-10-16T06:13:34;15.50;99.90
2639;DHT22;1329;51.384;7.122;2022-10-16T06:16:03;15.40;99.90
2639;DHT22;1329;51.384;7.122;2022-10-16T06:18:30;15.50;99.90
2639;DHT22;1329;51.384;7.122;2022-10-16T06:20:58;15.50;99.90
2639;DHT22;1329;51.384;7.122;2022-10-16T06:23:28;15.50;99.90
2639;DHT22;1329;51.384;7.122;2022-10-16T06:26:04;15.50;99.90
2639;DHT22;1329;51.384;7.122;2022-10-16T06:28:33;15.50;99.90
2639;DHT22;1329;51.384;7.122;2022-10-16T06:31:01;15.50;99.90
2639;DHT22;1329;51.384;7.122;2022-10-16T06:33:29;15.50;99.90
2639;DHT22;1329;51.384;7.122;2022-10-16T06:36:01;15.50;99.90
2639;DHT22;1329;51.384;7.122;2022-10-16T06:38:29;15.50;99.90
2639;DHT22;1329;51.384;7.122;2022-10-16T06:40:57;15.50;99.90
2639;DHT22;1329;51.384;7.122;2022-10-16T06:43:24;15.50;99.90
2639;DHT22;1329;51.384;7.122;2022-10-16T06:45:54;15.50;99.90
2639;DHT22;1329;51.384;7.122;2022-10-16T06:48:23;15.50;99.90
2639;DHT22;1329;51.384;7.122;2022-10-16T06:50:57;15.50;99.90
2639;DHT22;1329;51.384;7.122;2022-10-16T06:53:25;15.60;99.90
2639;DHT22;1329;51.384;7.122;2022-10-16T06:55:53;15.60;99.90
2639;DHT22;1329;51.384;7.122;2022-10-16T06:58:21;15.60;99.90
2639;DHT22;1329;51.384;7.122;2022-10-16T07:00:49;15.60;99.90
2639;DHT22;1329;51.384;7.122;2022-10-16T07:03:23;15.70;99.90
2639;DHT22;1329;51.384;7.122;2022-10-16T07:05:50;15.70;99.90
2639;DHT22;1329;51.384;7.122;2022-10-16T07:08:17;15.70;99.90
2639;DHT22;1329;51.384;7.122;2022-10-16T07:10:45;15.70;99.90
2639;DHT22;1329;51.384;7.122;2022-10-16T07:13:12;15.70;99.90
2639;DHT22;1329;51.384;7.122;2022-10-16T07:15:40;15.80;99.90
2639;DHT22;1329;51.384;7.122;2022-10-16T07:18:09;15.80;99.90
2639;DHT22;1329;51.384;7.122;2022-10-16T07:20:36;15.80;99.90
2639;DHT22;1329;51.384;7.122;2022-10-16T07:23:04;15.80;99.90
2639;DHT22;1329;51.384;7.122;2022-10-16T07:25:31;15.80;99.90
2639;DHT22;1329;51.384;7.122;2022-10-16T07:27:58;15.80;99.90
2639;DHT22;1329;51.384;7.122;2022-10-16T07:30:25;15.80;99.90
2639;DHT22;1329;51.384;7.122;2022-10-16T07:32:52;15.90;99.90
2639;DHT22;1329;51.384;7.122;2022-10-16T07:35:20;15.80;99.90
2639;DHT22;1329;51.384;7.122;2022-10-16T07:37:47;15.90;99.90
2639;DHT22;1329;51.384;7.122;2022-10-16T07:40:14;15.80;99.90
2639;DHT22;1329;51.384;7.122;2022-10-16T07:42:41;15.80;99.90
2639;DHT22;1329;51.384;7.122;2022-10-16T07:45:09;15.80;99.90
2639;DHT22;1329;51.384;7.122;2022-10-16T07:47:36;15.80;99.90
2639;DHT22;1329;51.384;7.122;2022-10-16T07:50:03;15.80;99.90
2639;DHT22;1329;51.384;7.122;2022-10-16T07:52:32;15.80;99.90
2639;DHT22;1329;51.384;7.122;2022-10-16T07:54:59;15.90;99.90
2639;DHT22;1329;51.384;7.122;2022-10-16T07:57:26;15.80;99.90
2639;DHT22;1329;51.384;7.122;2022-10-16T07:59:53;15.90;99.90
2639;DHT22;1329;51.384;7.122;2022-10-16T08:02:21;15.90;99.90
2639;DHT22;1329;51.384;7.122;2022-10-16T08:04:48;15.90;99.90
2639;DHT22;1329;51.384;7.122;2022-10-16T08:07:15;15.90;99.90
2639;DHT22;1329;51.384;7.122;2022-10-16T08:09:44;16.00;99.90
2639;DHT22;1329;51.384;7.122;2022-10-16T08:12:11;16.00;99.90
2639;DHT22;1329;51.384;7.122;2022-10-16T08:14:39;16.00;99.90
2639;DHT22;1329;51.384;7.122;2022-10-16T08:17:06;16.00;99.90
2639;DHT22;1329;51.384;7.122;2022-10-16T08:19:33;16.10;99.90
2639;DHT22;1329;51.384;7.122;2022-10-16T08:22:01;16.10;99.90
2639;DHT22;1329;51.384;7.122;2022-10-16T08:24:28;16.10;99.90
2639;DHT22;1329;51.384;7.122;2022-10-16T08:26:58;16.10;99.90
2639;DHT22;1329;51.384;7.122;2022-10-16T08:29:25;16.20;99.90
2639;DHT22;1329;51.384;7.122;2022-10-16T08:31:52;16.20;99.90
2639;DHT22;1329;51.384;7.122;2022-10-16T08:34:20;16.20;99.90
2639;DHT22;1329;51.384;7.122;2022-10-16T08:36:47;16.30;99.90
2639;DHT22;1329;51.384;7.122;2022-10-16T08:39:15;16.30;99.90
2639;DHT22;1329;51.384;7.122;2022-10-16T08:42:15;16.40;99.90
2639;DHT22;1329;51.384;7.122;2022-10-16T08:45:01;16.40;99.90
2639;DHT22;1329;51.384;7.122;2022-10-16T08:47:50;16.40;99.90
2639;DHT22;1329;51.384;7.122;2022-10-16T08:50:26;16.50;99.90
2639;DHT22;1329;51.384;7.122;2022-10-16T08:52:55;16.50;99.90
2639;DHT22;1329;51.384;7.122;2022-10-16T08:55:32;16.50;99.90
2639;DHT22;1329;51.384;7.122;2022-10-16T08:58:11;16.60;99.90
2639;DHT22;1329;51.384;7.122;2022-10-16T09:00:39;16.60;99.90
2639;DHT22;1329;51.384;7.122;2022-10-16T09:03:14;16.60;99.90
2639;DHT22;1329;51.384;7.122;2022-10-16T09:06:21;16.70;99.90
2639;DHT22;1329;51.384;7.122;2022-10-16T09:09:15;16.70;99.90
2639;DHT22;1329;51.384;7.122;2022-10-16T09:11:52;16.80;99.90
2639;DHT22;1329;51.384;7.122;2022-10-16T09:14:45;16.80;99.90
2639;DHT22;1329;51.384;7.122;2022-10-16T09:17:39;16.90;99.90
2639;DHT22;1329;51.384;7.122;2022-10-16T09:20:24;16.90;99.90
2639;DHT22;1329;51.384;7.122;2022-10-16T09:23:08;16.90;99.90
2639;DHT22;1329;51.384;7.122;2022-10-16T09:25:43;16.90;99.90
2639;DHT22;1329;51.384;7.122;2022-10-16T09:28:13;17.00;99.90
2639;DHT22;1329;51.384;7.122;2022-10-16T09:30:43;17.00;99.90
2639;DHT22;1329;51.384;7.122;2022-10-16T09:33:12;17.10;99.90
2639;DHT22;1329;51.384;7.122;2022-10-16T09:35:41;17.10;99.90
2639;DHT22;1329;51.384;7.122;2022-10-16T09:38:21;17.20;99.90
2639;DHT22;1329;51.384;7.122;2022-10-16T09:40:50;17.20;99.90
2639;DHT22;1329;51.384;7.122;2022-10-16T09:43:23;17.20;99.90
2639;DHT22;1329;51.384;7.122;2022-10-16T09:46:00;17.30;99.90
2639;DHT22;1329;51.384;7.122;2022-10-16T09:48:33;17.30;99.90
2639;DHT22;1329;51.384;7.122;2022-10-16T09:51:05;17.30;99.90
2639;DHT22;1329;51.384;7.122;2022-10-16T09:53:41;17.40;99.90
2639;DHT22;1329;51.384;7.122;2022-10-16T09:56:11;17.50;99.90
2639;DHT22;1329;51.384;7.122;2022-10-16T09:58:49;17.40;99.90
2639;DHT22;1329;51.384;7.122;2022-10-16T10:01:20;17.50;99.90
2639;DHT22;1329;51.384;7.122;2022-10-16T10:03:48;17.50;99.90
2639;DHT22;1329;51.384;7.122;2022-10-16T10:06:22;17.60;99.90
2639;DHT22;1329;51.384;7.122;2022-10-16T10:08:56;17.70;99.90
2639;DHT22;1329;51.384;7.122;2022-10-16T10:11:48;17.70;99.90
2639;DHT22;1329;51.384;7.122;2022-10-16T10:14:26;17.70;99.90
2639;DHT22;1329;51.384;7.122;2022-10-16T10:17:13;17.80;99.90
2639;DHT22;1329;51.384;7.122;2022-10-16T10:19:46;17.80;99.90
2639;DHT22;1329;51.384;7.122;2022-10-16T10:22:24;17.80;99.90
2639;DHT22;1329;51.384;7.122;2022-10-16T10:25:30;17.90;99.90
2639;DHT22;1329;51.384;7.122;2022-10-16T10:28:29;17.90;99.90
2639;DHT22;1329;51.384;7.122;2022-10-16T10:31:14;17.90;99.90
2639;DHT22;1329;51.384;7.122;2022-10-16T10:33:50;17.90;99.90
2639;DHT22;1329;51.384;7.122;2022-10-16T10:36:27;18.00;99.90
2639;DHT22;1329;51.384;7.122;2022-10-16T10:38:59;18.00;99.90
2639;DHT22;1329;51.384;7.122;2022-10-16T10:41:53;18.00;99.90
2639;DHT22;1329;51.384;7.122;2022-10-16T10:44:42;18.00;99.90
2639;DHT22;1329;51.384;7.122;2022-10-16T10:47:27;18.10;99.90
2639;DHT22;1329;51.384;7.122;2022-10-16T10:50:10;18.10;99.90
2639;DHT22;1329;51.384;7.122;2022-10-16T10:52:48;18.10;99.90
2639;DHT22;1329;51.384;7.122;2022-10-16T10:55:24;18.20;99.90
2639;DHT22;1329;51.384;7.122;2022-10-16T11:01:29;18.30;99.90
2639;DHT22;1329;51.384;7.122;2022-10-16T11:04:23;18.30;99.90
2639;DHT22;1329;51.384;7.122;2022-10-16T11:07:16;18.30;99.90
2639;DHT22;1329;51.384;7.122;2022-10-16T11:09:47;18.40;99.90
2639;DHT22;1329;51.384;7.122;2022-10-16T11:12:20;18.40;99.90
2639;DHT22;1329;51.384;7.122;2022-10-16T11:14:55;18.40;99.90
2639;DHT22;1329;51.384;7.122;2022-10-16T11:17:27;18.50;99.90
2639;DHT22;1329;51.384;7.122;2022-10-16T11:20:00;18.50;99.90
2639;DHT22;1329;51.384;7.122;2022-10-16T11:22:34;18.50;99.90
2639;DHT22;1329;51.384;7.122;2022-10-16T11:25:11;18.60;99.90
2639;DHT22;1329;51.384;7.122;2022-10-16T11:27:43;18.60;99.90
2639;DHT22;1329;51.384;7.122;2022-10-16T11:30:17;18.60;99.90
2639;DHT22;1329;51.384;7.122;2022-10-16T11:33:04;18.60;99.90
2639;DHT22;1329;51.384;7.122;2022-10-16T11:35:44;18.70;99.90
2639;DHT22;1329;51.384;7.122;2022-10-16T11:38:29;18.70;99.90
2639;DHT22;1329;51.384;7.122;2022-10-16T11:41:01;18.70;99.90
2639;DHT22;1329;51.384;7.122;2022-10-16T11:43:34;18.70;99.90
2639;DHT22;1329;51.384;7.122;2022-10-16T11:46:09;18.70;99.90
2639;DHT22;1329;51.384;7.122;2022-10-16T11:48:42;18.70;99.90
2639;DHT22;1329;51.384;7.122;2022-10-16T11:51:18;18.70;99.90
2639;DHT22;1329;51.384;7.122;2022-10-16T11:53:54;18.80;99.90
2639;DHT22;1329;51.384;7.122;2022-10-16T11:56:24;18.70;99.90
2639;DHT22;1329;51.384;7.122;2022-10-16T11:58:56;18.80;99.90
2639;DHT22;1329;51.384;7.122;2022-10-16T12:01:30;18.80;99.90
2639;DHT22;1329;51.384;7.122;2022-10-16T12:04:14;18.80;99.90
2639;DHT22;1329;51.384;7.122;2022-10-16T12:06:49;18.80;99.90
2639;DHT22;1329;51.384;7.122;2022-10-16T12:09:25;18.80;99.90
2639;DHT22;1329;51.384;7.122;2022-10-16T12:11:54;18.80;99.90
2639;DHT22;1329;51.384;7.122;2022-10-16T12:14:34;18.90;99.90
2639;DHT22;1329;51.384;7.122;2022-10-16T12:20:00;18.90;99.90
2639;DHT22;1329;51.384;7.122;2022-10-16T12:22:34;18.90;99.90
2639;DHT22;1329;51.384;7.122;2022-10-16T12:25:03;18.90;99.90
2639;DHT22;1329;51.384;7.122;2022-10-16T12:27:33;18.90;99.90
2639;DHT22;1329;51.384;7.122;2022-10-16T12:30:02;18.90;99.90
2639;DHT22;1329;51.384;7.122;2022-10-16T12:32:33;18.90;99.90
2639;DHT22;1329;51.384;7.122;2022-10-16T12:35:02;18.90;99.90
2639;DHT22;1329;51.384;7.122;2022-10-16T12:37:33;18.90;99.90
2639;DHT22;1329;51.384;7.122;2022-10-16T12:40:13;18.90;99.90
2639;DHT22;1329;51.384;7.122;2022-10-16T12:42:43;19.00;99.90
2639;DHT22;1329;51.384;7.122;2022-10-16T12:45:25;19.00;99.90
2639;DHT22;1329;51.384;7.122;2022-10-16T12:47:55;19.10;99.90
2639;DHT22;1329;51.384;7.122;2022-10-16T12:50:37;19.20;99.90
2639;DHT22;1329;51.384;7.122;2022-10-16T12:53:18;19.30;99.90
2639;DHT22;1329;51.384;7.122;2022-10-16T12:55:57;19.40;99.90
2639;DHT22;1329;51.384;7.122;2022-10-16T12:58:52;19.50;99.90
2639;DHT22;1329;51.384;7.122;2022-10-16T13:01:47;19.50;99.90
2639;DHT22;1329;51.384;7.122;2022-10-16T13:04:50;19.60;99.90
2639;DHT22;1329;51.384;7.122;2022-10-16T13:07:49;19.60;99.90
2639;DHT22;1329;51.384;7.122;2022-10-16T13:10:26;19.60;99.90
2639;DHT22;1329;51.384;7.122;2022-10-16T13:13:22;19.60;99.90
2639;DHT22;1329;51.384;7.122;2022-10-16T13:16:10;19.60;99.90
2639;DHT22;1329;51.384;7.122;2022-10-16T13:18:53;19.60;99.90
2639;DHT22;1329;51.384;7.122;2022-10-16T13:21:34;19.70;99.90
2639;DHT22;1329;51.384;7.122;2022-10-16T13:24:15;19.80;99.90
2639;DHT22;1329;51.384;7.122;2022-10-16T13:26:52;19.80;99.90
2639;DHT22;1329;51.384;7.122;2022-10-16T13:29:30;19.90;99.90
2639;DHT22;1329;51.384;7.122;2022-10-16T13:32:00;20.00;99.90
2639;DHT22;1329;51.384;7.122;2022-10-16T13:34:43;20.00;99.90
2639;DHT22;1329;51.384;7.122;2022-10-16T13:37:17;20.10;99.90
2639;DHT22;1329;51.384;7.122;2022-10-16T13:39:46;20.20;99.90
2639;DHT22;1329;51.384;7.122;2022-10-16T13:42:23;20.30;99.90
2639;DHT22;1329;51.384;7.122;2022-10-16T13:44:57;20.40;99.90
2639;DHT22;1329;51.384;7.122;2022-10-16T13:47:26;20.50;99.90
2639;DHT22;1329;51.384;7.122;2022-10-16T13:50:05;20.60;99.90
2639;DHT22;1329;51.384;7.122;2022-10-16T13:52:33;20.70;99.90
2639;DHT22;1329;51.384;7.122;2022-10-16T13:55:01;20.80;99.90
2639;DHT22;1329;51.384;7.122;2022-10-16T13:57:29;20.80;99.90
2639;DHT22;1329;51.384;7.122;2022-10-16T13:59:58;20.80;99.90
2639;DHT22;1329;51.384;7.122;2022-10-16T14:02:33;20.80;99.90
2639;DHT22;1329;51.384;7.122;2022-10-16T14:05:08;20.80;99.90
2639;DHT22;1329;51.384;7.122;2022-10-16T14:07:39;20.70;99.90
2639;DHT22;1329;51.384;7.122;2022-10-16T14:10:21;20.70;99.90
2639;DHT22;1329;51.384;7.122;2022-10-16T14:12:59;20.60;99.90
2639;DHT22;1329;51.384;7.122;2022-10-16T14:15:35;20.60;99.90
2639;DHT22;1329;51.384;7.122;2022-10-16T14:18:04;20.60;99.90
2639;DHT22;1329;51.384;7.122;2022-10-16T14:20:34;20.60;99.90
2639;DHT22;1329;51.384;7.122;2022-10-16T14:23:20;20.60;99.90
2639;DHT22;1329;51.384;7.122;2022-10-16T14:25:49;20.60;99.90
2639;DHT22;1329;51.384;7.122;2022-10-16T14:28:25;20.60;99.90
2639;DHT22;1329;51.384;7.122;2022-10-16T14:30:57;20.60;99.90
2639;DHT22;1329;51.384;7.122;2022-10-16T14:33:33;20.60;99.90
2639;DHT22;1329;51.384;7.122;2022-10-16T14:36:10;20.50;99.90
2639;DHT22;1329;51.384;7.122;2022-10-16T14:38:41;20.40;99.90
2639;DHT22;1329;51.384;7.122;2022-10-16T14:41:13;20.30;99.90
2639;DHT22;1329;51.384;7.122;2022-10-16T14:43:44;20.20;99.90
2639;DHT22;1329;51.384;7.122;2022-10-16T14:46:17;20.20;99.90
2639;DHT22;1329;51.384;7.122;2022-10-16T14:48:49;20.10;99.90
2639;DHT22;1329;51.384;7.122;2022-10-16T14:51:18;20.10;99.90
2639;DHT22;1329;51.384;7.122;2022-10-16T14:53:49;20.00;99.90
2639;DHT22;1329;51.384;7.122;2022-10-16T14:56:19;20.00;99.90
2639;DHT22;1329;51.384;7.122;2022-10-16T14:58:53;20.00;99.90
2639;DHT22;1329;51.384;7.122;2022-10-16T15:01:24;19.90;99.90
2639;DHT22;1329;51.384;7.122;2022-10-16T15:03:51;19.90;99.90
2639;DHT22;1329;51.384;7.122;2022-10-16T15:06:21;19.80;99.90
2639;DHT22;1329;51.384;7.122;2022-10-16T15:08:48;19.80;99.90
2639;DHT22;1329;51.384;7.122;2022-10-16T15:11:17;19.70;99.90
2639;DHT22;1329;51.384;7.122;2022-10-16T15:13:45;19.60;99.90
2639;DHT22;1329;51.384;7.122;2022-10-16T15:16:14;19.50;99.90
2639;DHT22;1329;51.384;7.122;2022-10-16T15:18:44;19.50;99.90
2639;DHT22;1329;51.384;7.122;2022-10-16T15:21:25;19.40;99.90
2639;DHT22;1329;51.384;7.122;2022-10-16T15:23:55;19.30;99.90
2639;DHT22;1329;51.384;7.122;2022-10-16T15:26:24;19.20;99.90
2639;DHT22;1329;51.384;7.122;2022-10-16T15:28:52;19.20;99.90
2639;DHT22;1329;51.384;7.122;2022-10-16T15:31:20;19.10;99.90
2639;DHT22;1329;51.384;7.122;2022-10-16T15:33:52;19.10;99.90
2639;DHT22;1329;51.384;7.122;2022-10-16T15:36:27;19.00;99.90
2639;DHT22;1329;51.384;7.122;2022-10-16T15:38:55;19.00;99.90
2639;DHT22;1329;51.384;7.122;2022-10-16T15:41:23;18.90;99.90
2639;DHT22;1329;51.384;7.122;2022-10-16T15:43:51;18.90;99.90
2639;DHT22;1329;51.384;7.122;2022-10-16T15:46:20;18.80;99.90
2639;DHT22;1329;51.384;7.122;2022-10-16T15:48:48;18.80;99.90
2639;DHT22;1329;51.384;7.122;2022-10-16T15:51:18;18.70;99.90
2639;DHT22;1329;51.384;7.122;2022-10-16T15:53:45;18.60;99.90
2639;DHT22;1329;51.384;7.122;2022-10-16T15:56:16;18.60;99.90
2639;DHT22;1329;51.384;7.122;2022-10-16T15:58:44;18.50;99.90
2639;DHT22;1329;51.384;7.122;2022-10-16T16:01:11;18.50;99.90
2639;DHT22;1329;51.384;7.122;2022-10-16T16:03:39;18.40;99.90
2639;DHT22;1329;51.384;7.122;2022-10-16T16:06:12;18.40;99.90
2639;DHT22;1329;51.384;7.122;2022-10-16T16:08:41;18.40;99.90
2639;DHT22;1329;51.384;7.122;2022-10-16T16:11:10;18.30;99.90
2639;DHT22;1329;51.384;7.122;2022-10-16T16:13:39;18.30;99.90
2639;DHT22;1329;51.384;7.122;2022-10-16T16:16:08;18.20;99.90
2639;DHT22;1329;51.384;7.122;2022-10-16T16:18:37;18.20;99.90
2639;DHT22;1329;51.384;7.122;2022-10-16T16:21:05;18.20;99.90
2639;DHT22;1329;51.384;7.122;2022-10-16T16:23:32;18.20;99.90
2639;DHT22;1329;51.384;7.122;2022-10-16T16:26:06;18.20;99.90
2639;DHT22;1329;51.384;7.122;2022-10-16T16:28:37;18.10;99.90
2639;DHT22;1329;51.384;7.122;2022-10-16T16:31:05;18.10;99.90
2639;DHT22;1329;51.384;7.122;2022-10-16T16:33:33;18.10;99.90
2639;DHT22;1329;51.384;7.122;2022-10-16T16:36:02;18.00;99.90
2639;DHT22;1329;51.384;7.122;2022-10-16T16:38:32;18.00;99.90